Time;durP1;ratioP1;P1;durP2;ratioP2;P2;SDS_P1;SDS_P2;PMS_P1;PMS_P2;Temp;Humidity;BMP_temperature;BMP_pressure;BME280_temperature;BME280_humidity;BME280_pressure;Samples;Min_cycle;Max_cycle;Signal;HPM_P1;HPM_P2
2022/06/03 00:01:04;;;;;;;3.17;2.63;;;;;;;10.05;74.04;102286.97;5017606;28;20064;-47
2022/06/03 00:04:07;;;;;;;3.53;2.60;;;;;;;9.94;73.90;102286.56;5015152;28;20026;-47
2022/06/03 00:07:05;;;;;;;6.28;3.05;;;;;;;9.90;74.08;102290.69;5013768;28;20037;-48
2022/06/03 00:09:49;;;;;;;5.65;3.47;;;;;;;9.94;74.16;102299.13;5011657;28;20030;-46
2022/06/03 00:12:47;;;;;;;9.02;3.67;;;;;;;9.90;74.53;102295.22;5010051;28;20113;-49
2022/06/03 00:15:20;;;;;;;8.35;4.88;;;;;;;9.89;74.41;102297.06;5017101;28;20021;-47
2022/06/03 00:18:07;;;;;;;7.05;4.43;;;;;;;9.82;74.87;102301.59;5016174;28;20026;-49
2022/06/03 00:20:41;;;;;;;7.57;4.72;;;;;;;9.83;74.88;102300.56;5016879;28;20036;-46
2022/06/03 00:23:16;;;;;;;8.07;4.22;;;;;;;9.82;75.19;102298.91;5014167;28;20040;-47
2022/06/03 00:25:41;;;;;;;6.50;4.20;;;;;;;9.80;74.53;102300.16;5012286;28;20030;-49
2022/06/03 00:28:22;;;;;;;6.57;4.32;;;;;;;9.75;74.39;102299.94;5018326;28;20056;-49
2022/06/03 00:31:05;;;;;;;9.05;4.18;;;;;;;9.76;74.57;102297.06;5013308;28;20029;-46
2022/06/03 00:33:53;;;;;;;8.63;4.47;;;;;;;9.74;74.48;102298.31;5009329;28;20450;-48
2022/06/03 00:36:45;;;;;;;6.88;4.40;;;;;;;9.58;74.56;102297.66;5017209;28;20424;-47
2022/06/03 00:39:42;;;;;;;7.03;4.68;;;;;;;9.60;74.55;102294.78;5014576;28;20061;-48
2022/06/03 00:42:39;;;;;;;7.35;4.00;;;;;;;9.52;74.52;102297.66;4960211;28;20039;-47
2022/06/03 00:45:31;;;;;;;4.80;4.05;;;;;;;9.48;74.94;102293.72;5018895;28;20075;-48
2022/06/03 00:48:29;;;;;;;5.85;4.10;;;;;;;9.46;75.06;102293.09;5020476;28;20022;-48
2022/06/03 00:51:00;;;;;;;7.32;4.43;;;;;;;9.44;75.06;102293.31;4987115;28;20507;-47
2022/06/03 00:53:58;;;;;;;7.35;4.35;;;;;;;9.46;75.29;102293.09;5020714;28;20430;-47
2022/06/03 00:56:37;;;;;;;10.00;4.65;;;;;;;9.47;74.82;102298.25;5019471;28;20515;-46
2022/06/03 00:59:33;;;;;;;7.35;4.82;;;;;;;9.43;76.45;102291.66;5023438;28;20035;-47
2022/06/03 01:02:15;;;;;;;4.95;4.28;;;;;;;9.36;76.84;102294.31;5023466;28;20438;-46
2022/06/03 01:04:46;;;;;;;6.43;4.32;;;;;;;9.42;76.78;102289.19;5024204;28;20375;-47
2022/06/03 01:07:17;;;;;;;6.60;4.53;;;;;;;9.44;76.46;102292.47;5023217;28;20025;-47
2022/06/03 01:09:52;;;;;;;9.13;4.57;;;;;;;9.40;76.14;102292.06;5018568;28;20506;-47
2022/06/03 01:12:32;;;;;;;7.47;4.38;;;;;;;9.33;75.67;102292.03;5022216;28;20483;-47
2022/06/03 01:15:16;;;;;;;3.75;3.42;;;;;;;9.20;75.02;102296.53;5021867;28;20022;-47
2022/06/03 01:18:08;;;;;;;7.60;3.50;;;;;;;9.11;74.91;102292.38;5020824;28;20398;-47
2022/06/03 01:20:55;;;;;;;6.90;3.70;;;;;;;9.02;75.68;102291.75;5018935;28;20126;-47
2022/06/03 01:23:48;;;;;;;5.40;3.83;;;;;;;8.94;75.54;102289.22;5023339;28;20364;-47
2022/06/03 01:26:33;;;;;;;6.07;3.72;;;;;;;8.91;75.66;102289.63;5021011;28;20057;-48
2022/06/03 01:29:10;;;;;;;7.65;3.65;;;;;;;8.91;75.42;102290.47;5023142;28;20075;-47
2022/06/03 01:32:01;;;;;;;6.25;3.70;;;;;;;8.85;75.37;102287.78;5019591;28;20044;-47
2022/06/03 01:35:00;;;;;;;4.40;3.17;;;;;;;8.79;75.13;102284.03;5020707;28;20041;-47
2022/06/03 01:37:45;;;;;;;5.95;3.70;;;;;;;8.79;75.15;102290.19;5020700;28;20087;-46
2022/06/03 01:40:33;;;;;;;5.85;4.35;;;;;;;8.79;75.44;102298.22;5021247;28;20087;-47
2022/06/03 01:43:17;;;;;;;6.55;4.18;;;;;;;8.73;75.26;102303.53;5024226;28;20494;-46
2022/06/03 01:45:42;;;;;;;4.93;3.05;;;;;;;8.70;75.63;102299.41;5016858;28;20120;-47
2022/06/03 01:48:34;;;;;;;4.57;3.75;;;;;;;8.64;75.77;102292.19;5023732;28;20490;-47
2022/06/03 01:51:09;;;;;;;6.30;3.60;;;;;;;8.67;75.74;102297.13;5019269;28;20026;-48
2022/06/03 01:53:53;;;;;;;9.00;4.22;;;;;;;8.69;75.53;102299.63;5016939;28;21352;-47
2022/06/03 01:56:37;;;;;;;6.57;4.07;;;;;;;8.74;75.30;102303.34;5017435;28;20052;-47
2022/06/03 01:59:29;;;;;;;7.80;5.25;;;;;;;8.81;75.75;102307.91;5020477;28;20029;-47
2022/06/03 02:02:00;;;;;;;7.72;4.63;;;;;;;8.82;75.61;102306.88;5022129;28;20039;-46
2022/06/03 02:04:45;;;;;;;6.00;4.90;;;;;;;8.82;75.48;102314.91;5015472;28;20365;-47
2022/06/03 02:07:35;;;;;;;7.13;4.47;;;;;;;8.77;75.46;102312.78;5019170;28;20602;-48
2022/06/03 02:10:34;;;;;;;6.85;4.80;;;;;;;8.66;75.47;102316.88;5015285;28;20081;-47
2022/06/03 02:13:05;;;;;;;6.13;4.25;;;;;;;8.61;75.42;102311.28;5020051;28;20029;-46
2022/06/03 02:16:03;;;;;;;5.05;3.13;;;;;;;8.50;75.93;102308.34;5015732;28;20154;-46
2022/06/03 02:19:06;;;;;;;3.92;2.95;;;;;;;8.41;75.26;102316.50;5014162;28;20570;-47
2022/06/03 02:21:51;;;;;;;4.03;3.00;;;;;;;8.34;76.03;102326.31;5016387;28;20025;-47
2022/06/03 02:24:20;;;;;;;4.50;3.00;;;;;;;8.40;75.90;102322.03;5018528;28;20499;-46
2022/06/03 02:27:19;;;;;;;3.45;3.10;;;;;;;8.31;75.84;102307.97;5010400;28;20509;-47
2022/06/03 02:30:26;;;;;;;4.50;3.28;;;;;;;8.27;75.71;102311.25;4991038;28;20060;-46
2022/06/03 02:33:10;;;;;;;6.57;3.42;;;;;;;8.27;75.37;102309.41;4977108;28;20037;-47
2022/06/03 02:35:58;;;;;;;7.85;3.90;;;;;;;8.24;75.83;102306.28;5018468;28;20116;-47
2022/06/03 02:39:11;;;;;;;3.95;3.10;;;;;;;8.14;76.04;102310.13;5016777;28;20032;-47
2022/06/03 02:42:05;;;;;;;5.35;4.20;;;;;;;8.09;75.86;102299.19;4982190;28;20041;-48
2022/06/03 02:45:07;;;;;;;6.20;3.80;;;;;;;8.10;75.56;102300.84;5014404;28;20068;-47
2022/06/03 02:47:35;;;;;;;8.20;4.20;;;;;;;8.16;75.46;102307.25;5016620;28;20022;-48
2022/06/03 02:50:19;;;;;;;8.27;4.40;;;;;;;8.10;75.97;102300.84;5018236;28;20034;-46
2022/06/03 02:52:57;;;;;;;5.97;4.00;;;;;;;8.05;75.86;102303.25;5019150;28;20116;-47
2022/06/03 02:55:25;;;;;;;5.57;4.00;;;;;;;8.08;75.71;102302.91;5016111;28;20022;-47
2022/06/03 02:57:57;;;;;;;8.95;4.43;;;;;;;8.07;75.69;102300.38;5018046;28;20026;-46
2022/06/03 03:00:42;;;;;;;10.50;4.40;;;;;;;8.00;75.87;102311.03;5014139;28;20025;-47
2022/06/03 03:03:10;;;;;;;6.57;4.63;;;;;;;7.89;76.46;102324.88;5019347;28;20025;-47
2022/06/03 03:06:14;;;;;;;7.70;4.60;;;;;;;7.84;76.83;102316.63;5011826;28;20030;-47
2022/06/03 03:08:49;;;;;;;4.75;3.35;;;;;;;7.88;76.78;102309.88;5015563;28;20029;-46
2022/06/03 03:11:37;;;;;;;5.18;3.72;;;;;;;7.76;77.12;102319.44;5017787;28;20440;-46
2022/06/03 03:14:19;;;;;;;7.75;4.53;;;;;;;7.63;78.49;102319.31;4987920;28;20079;-46
2022/06/03 03:17:11;;;;;;;13.25;5.72;;;;;;;7.52;79.10;102318.78;5020569;28;20120;-46
2022/06/03 03:20:13;;;;;;;11.15;5.70;;;;;;;7.58;79.38;102312.69;5013230;28;20041;-47
2022/06/03 03:23:16;;;;;;;9.60;5.75;;;;;;;7.66;79.60;102316.25;5018817;28;20312;-47
2022/06/03 03:26:14;;;;;;;12.00;5.90;;;;;;;7.69;79.77;102318.53;5016925;28;20029;-46
2022/06/03 03:28:56;;;;;;;9.52;5.70;;;;;;;7.81;78.93;102315.16;5012444;28;20587;-46
2022/06/03 03:31:43;;;;;;;5.55;4.28;;;;;;;7.85;78.88;102312.94;5016021;28;20041;-47
2022/06/03 03:34:55;;;;;;;11.60;5.50;;;;;;;7.90;79.09;102321.22;5015095;28;20171;-47
2022/06/03 03:37:32;;;;;;;6.85;5.15;;;;;;;7.96;79.48;102327.63;5018052;28;20088;-47
2022/06/03 03:40:10;;;;;;;5.93;5.05;;;;;;;8.03;79.64;102328.50;5020863;28;20087;-47
2022/06/03 03:42:41;;;;;;;9.23;6.32;;;;;;;8.07;80.09;102327.91;5013140;28;20068;-46
2022/06/03 03:45:29;;;;;;;9.23;4.95;;;;;;;8.04;80.15;102328.28;5019504;28;20291;-47
2022/06/03 03:48:09;;;;;;;7.45;4.95;;;;;;;8.03;81.00;102321.31;5016471;28;20025;-46
2022/06/03 03:50:54;;;;;;;6.00;4.60;;;;;;;8.10;80.60;102330.22;5019462;28;20389;-47
2022/06/03 03:53:35;;;;;;;7.10;4.90;;;;;;;8.23;79.27;102331.31;5017349;28;20045;-47
2022/06/03 03:56:24;;;;;;;7.30;5.20;;;;;;;8.32;80.25;102338.19;5012873;28;20033;-47
2022/06/03 03:59:11;;;;;;;6.25;4.90;;;;;;;8.44;80.16;102336.66;5018610;28;20029;-46
2022/06/03 04:02:11;;;;;;;8.80;5.97;;;;;;;8.48;81.24;102341.41;5013383;28;20030;-48
2022/06/03 04:05:04;;;;;;;6.40;5.43;;;;;;;8.49;83.52;102331.56;5012619;28;20030;-47
2022/06/03 04:08:00;;;;;;;7.45;5.65;;;;;;;8.53;85.01;102334.66;5016350;28;20033;-48
2022/06/03 04:11:01;;;;;;;6.88;5.97;;;;;;;8.56;85.73;102329.75;5012448;28;20022;-46
2022/06/03 04:13:54;;;;;;;6.72;5.97;;;;;;;8.64;85.44;102334.13;4978453;28;20491;-48
2022/06/03 04:16:44;;;;;;;10.55;6.10;;;;;;;8.74;84.98;102335.41;5015571;28;20107;-47
2022/06/03 04:19:34;;;;;;;7.40;6.00;;;;;;;8.84;85.30;102342.25;5019665;28;20041;-46
2022/06/03 04:22:27;;;;;;;9.82;6.38;;;;;;;8.92;85.68;102342.91;5016964;28;20037;-47
2022/06/03 04:25:11;;;;;;;6.60;5.65;;;;;;;8.97;86.03;102334.28;5012072;28;20049;-47
2022/06/03 04:28:13;;;;;;;8.65;5.72;;;;;;;9.08;85.85;102341.75;5014556;28;20041;-47
2022/06/03 04:31:07;;;;;;;6.97;6.00;;;;;;;9.22;85.85;102343.44;5014899;28;20746;-47
2022/06/03 04:33:53;;;;;;;7.50;5.95;;;;;;;9.32;85.49;102337.72;5007587;28;20048;-48
2022/06/03 04:36:55;;;;;;;8.57;7.68;;;;;;;9.40;86.19;102332.19;5015668;28;20497;-46
2022/06/03 04:39:41;;;;;;;8.73;7.05;;;;;;;9.48;86.96;102341.88;5014553;28;20029;-46
2022/06/03 04:43:07;;;;;;;11.15;7.03;;;;;;;9.59;86.83;102336.78;5011443;28;20129;-46
2022/06/03 04:45:53;;;;;;;7.70;6.25;;;;;;;9.75;85.51;102351.63;4979766;28;20035;-46
2022/06/03 04:48:24;;;;;;;8.35;6.53;;;;;;;9.88;85.55;102351.66;4996449;28;20042;-47
2022/06/03 04:51:08;;;;;;;9.55;6.38;;;;;;;9.94;85.64;102350.00;5014873;28;20029;-46
2022/06/03 04:53:55;;;;;;;8.57;6.10;;;;;;;10.03;85.78;102340.72;5013253;28;20041;-48
2022/06/03 04:56:52;;;;;;;7.50;6.30;;;;;;;10.16;84.95;102339.91;5013566;28;20033;-46
2022/06/03 04:59:51;;;;;;;8.00;6.22;;;;;;;10.27;84.02;102347.38;5016680;28;20479;-47
2022/06/03 05:02:39;;;;;;;7.38;5.80;;;;;;;10.38;83.55;102346.72;5012730;28;20167;-47
2022/06/03 05:05:07;;;;;;;7.05;6.32;;;;;;;10.46;83.48;102349.19;5014929;28;20034;-48
2022/06/03 05:07:48;;;;;;;7.75;6.05;;;;;;;10.53;83.32;102347.31;5016308;28;20033;-47
2022/06/03 05:10:31;;;;;;;8.23;6.30;;;;;;;10.62;83.41;102350.63;5016931;28;20100;-49
2022/06/03 05:13:19;;;;;;;7.70;6.05;;;;;;;10.71;83.48;102343.16;5014735;28;20026;-47
2022/06/03 05:16:03;;;;;;;6.75;5.97;;;;;;;10.84;83.30;102348.50;5013203;28;20041;-47
2022/06/03 05:19:22;;;;;;;6.63;5.60;;;;;;;10.99;82.75;102350.94;5011630;28;20491;-47
2022/06/03 05:22:35;;;;;;;7.03;5.85;;;;;;;11.13;82.82;102353.38;4976760;28;20030;-47
2022/06/03 05:25:32;;;;;;;7.43;5.82;;;;;;;11.25;82.40;102350.81;4936435;28;20114;-48
2022/06/03 05:28:17;;;;;;;6.75;5.88;;;;;;;11.38;81.62;102353.44;4945854;28;20500;-47
2022/06/03 05:31:20;;;;;;;7.78;6.28;;;;;;;11.49;81.43;102349.28;5009099;28;20400;-47
2022/06/03 05:34:04;;;;;;;7.88;5.70;;;;;;;11.64;81.45;102357.00;5010211;28;20472;-48
2022/06/03 05:36:58;;;;;;;6.85;5.45;;;;;;;11.73;80.52;102364.63;5016445;28;20021;-46
2022/06/03 05:39:33;;;;;;;6.57;5.88;;;;;;;11.83;80.23;102357.97;5015996;28;20061;-46
2022/06/03 05:42:29;;;;;;;8.27;5.65;;;;;;;11.95;80.92;102362.44;5017056;28;20394;-47
2022/06/03 05:45:43;;;;;;;7.65;5.78;;;;;;;12.14;80.21;102354.44;5016777;28;20033;-47
2022/06/03 05:48:18;;;;;;;8.07;5.95;;;;;;;12.34;80.47;102355.91;5000072;28;20033;-47
2022/06/03 05:51:01;;;;;;;;;;;;;;;12.48;80.20;102361.16;5017542;28;20032;-47
2022/06/03 05:53:50;;;;;;;7.20;6.07;;;;;;;12.59;80.32;102355.88;5017869;28;19913;-49
2022/06/03 05:56:24;;;;;;;11.35;6.93;;;;;;;12.71;79.82;102348.72;5013115;28;20281;-47
2022/06/03 05:59:25;;;;;;;8.55;6.70;;;;;;;12.87;79.93;102344.63;5018605;28;20333;-47
2022/06/03 06:02:18;;;;;;;8.63;6.28;;;;;;;13.00;78.98;102357.09;5011474;28;20591;-47
2022/06/03 06:04:59;;;;;;;8.20;5.60;;;;;;;13.10;78.46;102351.16;5016064;28;20037;-47
2022/06/03 06:07:50;;;;;;;6.70;5.80;;;;;;;13.15;78.21;102349.47;5015992;28;20498;-47
2022/06/03 06:10:43;;;;;;;10.73;6.10;;;;;;;13.28;77.87;102345.78;5012852;28;20053;-47
2022/06/03 06:13:41;;;;;;;9.65;5.75;;;;;;;13.43;77.69;102353.47;5021415;28;20570;-48
2022/06/03 06:16:37;;;;;;;6.85;5.68;;;;;;;13.55;77.35;102346.28;5000048;28;20462;-47
2022/06/03 06:19:39;;;;;;;9.68;5.82;;;;;;;13.69;77.07;102357.69;5010498;28;20590;-47
2022/06/03 06:22:16;;;;;;;8.80;5.63;;;;;;;13.84;76.25;102360.78;5019084;28;20570;-47
2022/06/03 06:24:53;;;;;;;8.30;5.00;;;;;;;13.95;75.53;102359.16;5010737;28;20046;-47
2022/06/03 06:27:57;;;;;;;8.65;4.80;;;;;;;14.06;75.12;102358.34;5017938;28;20396;-47
2022/06/03 06:30:54;;;;;;;4.85;4.15;;;;;;;14.23;73.31;102358.50;5004640;28;20130;-47
2022/06/03 06:34:01;;;;;;;6.63;3.45;;;;;;;14.33;72.80;102346.06;5012092;28;20048;-47
2022/06/03 06:36:48;;;;;;;4.05;3.47;;;;;;;14.44;71.80;102345.28;5018978;28;20029;-48
2022/06/03 06:40:07;;;;;;;5.05;3.40;;;;;;;14.56;70.27;102345.28;5013705;28;20432;-47
2022/06/03 06:42:59;;;;;;;5.60;3.28;;;;;;;14.72;70.44;102341.03;4933963;29;20126;-47
2022/06/03 06:45:46;;;;;;;5.70;3.22;;;;;;;14.86;70.00;102325.41;5018918;28;20044;-47
2022/06/03 06:48:18;;;;;;;5.07;2.90;;;;;;;15.00;69.25;102332.19;5013640;28;20060;-49
2022/06/03 06:50:46;;;;;;;4.70;3.00;;;;;;;15.11;68.61;102331.34;5019545;28;20260;-47
2022/06/03 06:53:15;;;;;;;4.63;2.92;;;;;;;15.21;68.12;102336.94;5012378;28;20026;-47
2022/06/03 06:56:05;;;;;;;6.25;3.47;;;;;;;15.33;68.20;102332.31;5015945;28;20196;-46
2022/06/03 06:58:45;;;;;;;4.75;3.00;;;;;;;15.47;67.27;102337.44;5018381;28;20025;-47
2022/06/03 07:01:16;;;;;;;2.60;2.35;;;;;;;15.61;67.26;102333.38;5010728;28;20096;-47
2022/06/03 07:03:52;;;;;;;5.78;2.50;;;;;;;15.69;66.36;102335.69;5015872;28;20030;-47
2022/06/03 07:06:29;;;;;;;4.50;2.53;;;;;;;15.75;65.64;102334.72;5011475;28;20046;-47
2022/06/03 07:09:09;;;;;;;3.17;2.80;;;;;;;15.81;65.17;102336.44;5016027;28;20028;-48
2022/06/03 07:11:50;;;;;;;4.43;3.25;;;;;;;15.91;65.69;102333.91;5012505;28;20033;-47
2022/06/03 07:14:25;;;;;;;5.15;3.10;;;;;;;16.00;65.99;102332.44;5019577;28;20061;-47
2022/06/03 07:20:05;;;;;;;4.47;3.30;;;;;;;16.15;64.24;102331.84;5011711;28;20513;-47
2022/06/03 07:22:50;;;;;;;3.60;2.53;;;;;;;16.32;62.90;102326.41;5017570;28;20029;-47
2022/06/03 07:25:21;;;;;;;4.53;2.10;;;;;;;16.49;62.72;102315.56;5019169;28;20065;-48
2022/06/03 07:27:56;;;;;;;3.50;2.35;;;;;;;16.61;61.19;102322.53;5020129;28;20492;-47
2022/06/03 07:30:33;;;;;;;4.05;2.33;;;;;;;16.72;61.24;102320.00;5014258;28;20071;-48
2022/06/03 07:33:11;;;;;;;3.33;2.15;;;;;;;16.83;59.43;102313.63;5014426;28;20061;-47
2022/06/03 07:35:47;;;;;;;3.58;2.58;;;;;;;16.97;60.11;102319.47;5014046;28;20034;-48
2022/06/03 07:38:39;;;;;;;3.00;2.17;;;;;;;17.08;58.64;102321.25;5010257;28;20026;-48
2022/06/03 07:41:17;;;;;;;4.85;2.38;;;;;;;17.21;57.31;102320.84;5017828;28;20035;-48
2022/06/03 07:43:49;;;;;;;3.60;2.22;;;;;;;17.29;57.33;102314.97;5011710;28;20030;-48
2022/06/03 07:46:21;;;;;;;3.75;2.60;;;;;;;17.34;57.50;102317.75;5015744;28;20506;-48
2022/06/03 07:48:47;;;;;;;2.63;2.20;;;;;;;17.43;57.80;102321.63;5012270;28;20036;-48
2022/06/03 07:51:15;;;;;;;3.35;2.20;;;;;;;17.51;57.53;102317.63;5016296;28;20396;-48
2022/06/03 07:53:52;;;;;;;3.42;2.00;;;;;;;17.64;56.39;102319.13;5012658;28;20506;-49
2022/06/03 07:56:27;;;;;;;3.30;1.80;;;;;;;17.74;54.86;102320.03;5021465;28;20437;-49
2022/06/03 07:58:56;;;;;;;3.13;1.80;;;;;;;17.80;55.49;102323.63;5016301;28;20033;-50
2022/06/03 08:01:43;;;;;;;2.53;1.50;;;;;;;17.93;54.75;102330.50;5011354;28;20113;-49
2022/06/03 08:04:25;;;;;;;1.77;1.63;;;;;;;17.89;51.90;102329.38;5016470;28;20037;-48
2022/06/03 08:12:30;;;;;;;2.42;1.10;;;;;;;17.98;50.12;102325.13;5014726;28;20304;-47
2022/06/03 08:14:56;;;;;;;0.95;0.90;;;;;;;18.05;48.41;102325.72;5015655;28;20029;-48
2022/06/03 08:17:25;;;;;;;1.55;1.13;;;;;;;18.06;47.72;102324.66;5015926;28;20029;-48
2022/06/03 08:19:54;;;;;;;2.45;1.10;;;;;;;18.22;48.39;102331.00;5014475;28;20025;-48
2022/06/03 08:22:23;;;;;;;3.10;1.38;;;;;;;18.27;46.94;102329.13;5013721;28;20038;-47
2022/06/03 08:24:55;;;;;;;1.10;1.00;;;;;;;18.33;46.29;102322.69;5018375;28;20076;-48
2022/06/03 08:27:32;;;;;;;1.60;1.30;;;;;;;18.55;47.13;102324.44;5019912;28;20040;-48
2022/06/03 08:30:17;;;;;;;2.38;1.23;;;;;;;18.71;47.00;102327.00;5010116;28;20514;-47
2022/06/03 08:32:51;;;;;;;2.30;1.40;;;;;;;18.78;47.70;102321.31;5016411;28;20032;-50
2022/06/03 08:35:22;;;;;;;1.58;1.10;;;;;;;18.84;47.10;102317.53;5010972;28;20037;-47
2022/06/03 08:38:06;;;;;;;2.45;1.30;;;;;;;18.72;44.52;102325.09;5015561;28;20056;-47
2022/06/03 08:41:16;;;;;;;1.10;1.00;;;;;;;18.73;44.18;102325.91;5013809;28;20388;-48
2022/06/03 08:44:09;;;;;;;3.80;1.33;;;;;;;18.89;45.47;102327.63;4976470;28;20363;-48
2022/06/03 08:46:37;;;;;;;2.50;1.45;;;;;;;18.99;46.00;102317.59;5015442;28;20067;-48
2022/06/03 08:49:10;;;;;;;1.58;1.10;;;;;;;19.06;46.30;102311.94;5010588;28;20034;-48
2022/06/03 08:51:42;;;;;;;1.40;1.13;;;;;;;19.25;47.02;102312.25;5016644;28;20025;-47
2022/06/03 08:54:29;;;;;;;1.90;1.30;;;;;;;19.24;45.67;102316.06;5018294;28;20107;-49
2022/06/03 08:57:03;;;;;;;1.83;1.48;;;;;;;19.31;46.06;102314.69;5017618;28;20376;-48
2022/06/03 08:59:39;;;;;;;2.05;1.20;;;;;;;19.38;45.25;102319.84;5012296;28;20112;-48
2022/06/03 09:02:20;;;;;;;1.63;1.52;;;;;;;19.42;44.97;102312.00;5010044;28;20054;-47
2022/06/03 09:04:53;;;;;;;1.95;0.90;;;;;;;19.61;45.67;102310.44;5016025;28;20383;-48
2022/06/03 09:08:01;;;;;;;2.55;1.20;;;;;;;19.60;43.82;102308.81;5013319;28;20038;-48
2022/06/03 09:10:37;;;;;;;1.10;1.00;;;;;;;19.70;43.40;102302.53;4974706;28;20038;-48
2022/06/03 09:13:33;;;;;;;2.00;1.15;;;;;;;19.63;42.69;102297.38;4977841;28;20043;-48
2022/06/03 09:16:00;;;;;;;2.28;1.40;;;;;;;19.72;44.24;102303.88;5003183;28;20030;-48
2022/06/03 09:18:31;;;;;;;1.65;1.20;;;;;;;19.70;42.81;102302.53;5018362;28;20025;-48
2022/06/03 09:20:56;;;;;;;1.65;1.25;;;;;;;19.76;43.44;102296.03;5017460;28;20033;-47
2022/06/03 09:23:24;;;;;;;2.10;1.23;;;;;;;19.83;43.53;102294.66;5019762;28;20029;-49
2022/06/03 09:25:57;;;;;;;2.38;1.13;;;;;;;19.93;43.45;102291.13;5017608;28;20510;-47
2022/06/03 09:28:31;;;;;;;1.60;1.30;;;;;;;19.97;43.22;102294.94;5016540;28;20584;-48
2022/06/03 09:30:59;;;;;;;1.70;1.40;;;;;;;20.16;43.89;102292.44;5014146;28;20025;-47
2022/06/03 09:33:27;;;;;;;1.23;1.13;;;;;;;20.36;45.12;102288.88;5022071;28;20116;-50
2022/06/03 09:35:56;;;;;;;3.00;1.67;;;;;;;20.60;45.37;102283.63;5013351;28;20026;-50
2022/06/03 09:38:25;;;;;;;2.72;1.20;;;;;;;20.63;44.00;102283.88;5024175;28;20380;-47
2022/06/03 09:40:58;;;;;;;1.30;1.20;;;;;;;20.54;42.52;102285.56;5013818;28;20105;-48
2022/06/03 09:43:31;;;;;;;1.25;1.15;;;;;;;20.47;42.44;102283.16;5015666;28;20037;-47
2022/06/03 09:45:59;;;;;;;2.37;1.10;;;;;;;20.38;41.79;102275.78;5015567;28;20033;-48
2022/06/03 09:48:34;;;;;;;2.53;1.17;;;;;;;20.52;41.93;102272.25;5020170;28;20045;-48
2022/06/03 09:51:15;;;;;;;2.65;1.33;;;;;;;20.58;42.56;102275.75;5017620;28;20075;-47
2022/06/03 09:53:43;;;;;;;1.23;1.05;;;;;;;20.68;42.23;102272.19;5012821;28;20373;-48
2022/06/03 09:56:29;;;;;;;1.10;0.95;;;;;;;20.64;41.13;102271.91;5019735;28;20017;-48
2022/06/03 09:59:01;;;;;;;2.22;1.05;;;;;;;20.70;41.34;102262.63;5018155;28;20500;-48
2022/06/03 10:01:27;;;;;;;1.58;1.05;;;;;;;20.87;41.51;102264.19;5022110;28;20041;-48
2022/06/03 10:04:04;;;;;;;6.80;1.20;;;;;;;21.13;42.44;102260.22;5011931;28;20026;-48
2022/06/03 10:06:50;;;;;;;2.03;1.10;;;;;;;21.27;42.49;102260.44;5012806;28;20031;-48
2022/06/03 10:17:53;;;;;;;1.85;1.33;;;;;;;20.91;41.36;102246.19;5013158;28;20033;-48
2022/06/03 10:20:19;;;;;;;3.83;1.48;;;;;;;20.96;41.58;102241.50;5017227;28;20026;-48
2022/06/03 10:22:46;;;;;;;2.47;1.38;;;;;;;21.17;42.14;102250.38;5013015;28;20045;-48
2022/06/03 10:25:12;;;;;;;1.27;1.10;;;;;;;21.41;42.17;102243.16;5018997;28;20033;-48
2022/06/03 10:27:37;;;;;;;1.10;1.00;;;;;;;21.45;41.16;102239.84;5021426;28;20262;-49
2022/06/03 10:30:05;;;;;;;1.52;1.17;;;;;;;21.45;40.76;102237.94;5020278;28;20112;-48
2022/06/03 10:32:32;;;;;;;1.45;1.30;;;;;;;21.39;40.50;102231.72;5014702;28;20036;-48
2022/06/03 10:35:16;;;;;;;2.92;1.30;;;;;;;21.38;39.91;102229.28;5015571;28;20494;-48
2022/06/03 10:37:50;;;;;;;2.97;1.20;;;;;;;21.47;39.56;102224.00;5012593;28;20045;-48
2022/06/03 10:40:17;;;;;;;1.23;1.13;;;;;;;21.49;40.02;102217.16;5013031;28;20029;-48
2022/06/03 10:42:48;;;;;;;1.52;1.00;;;;;;;21.54;38.75;102221.75;5017310;28;20108;-48
2022/06/03 10:45:15;;;;;;;2.13;1.15;;;;;;;21.58;39.26;102214.66;5015902;28;20121;-48
2022/06/03 10:47:43;;;;;;;2.25;1.05;;;;;;;21.63;38.42;102220.88;5017667;28;20452;-48
2022/06/03 10:50:29;;;;;;;1.83;1.38;;;;;;;21.70;37.31;102220.53;5015600;28;20022;-48
2022/06/03 11:01:41;;;;;;;1.35;1.15;;;;;;;22.03;38.11;102222.38;5018943;28;20045;-49
2022/06/03 11:04:07;;;;;;;3.10;1.10;;;;;;;22.06;37.43;102220.19;5013139;28;20026;-47
2022/06/03 11:06:36;;;;;;;3.05;1.30;;;;;;;21.88;37.05;102210.81;5018956;28;20120;-46
2022/06/03 11:09:06;;;;;;;1.45;1.20;;;;;;;21.88;37.49;102214.34;5013610;28;20033;-48
2022/06/03 11:11:47;;;;;;;1.42;1.20;;;;;;;22.03;37.54;102203.25;5019949;28;20026;-48
2022/06/03 11:14:25;;;;;;;1.30;1.20;;;;;;;22.18;37.38;102202.31;5013715;28;20056;-48
2022/06/03 11:16:58;;;;;;;1.52;1.15;;;;;;;22.20;38.09;102197.38;5015242;28;20087;-48
2022/06/03 11:19:23;;;;;;;2.20;1.45;;;;;;;22.37;39.22;102188.69;5015316;28;20107;-50
2022/06/03 11:22:29;;;;;;;1.23;1.05;;;;;;;22.64;39.51;102190.00;5016242;28;20311;-48
2022/06/03 11:25:02;;;;;;;;;;;;;;;22.90;39.54;102188.56;5017093;28;20124;-48
2022/06/03 11:27:49;;;;;;;1.73;1.08;;;;;;;23.02;38.00;102177.97;5016606;28;19985;-48
2022/06/03 11:30:25;;;;;;;3.53;1.30;;;;;;;23.06;37.08;102172.72;5017358;28;20540;-48
2022/06/03 11:32:55;;;;;;;1.83;1.30;;;;;;;23.04;37.95;102178.50;5011891;28;20217;-47
2022/06/03 11:35:38;;;;;;;3.70;1.35;;;;;;;22.94;36.11;102175.09;5017190;28;20450;-48
2022/06/03 11:38:06;;;;;;;1.38;1.00;;;;;;;22.98;36.75;102171.50;5019179;28;20419;-50
2022/06/03 11:40:37;;;;;;;1.38;0.90;;;;;;;23.11;37.13;102173.44;5017172;28;20054;-49
2022/06/03 11:43:19;;;;;;;1.83;1.00;;;;;;;23.06;35.11;102181.75;5016784;28;20618;-48
2022/06/03 11:46:05;;;;;;;1.92;0.93;;;;;;;23.14;34.58;102183.78;5011156;28;20030;-48
2022/06/03 11:48:38;;;;;;;1.55;1.10;;;;;;;23.03;34.38;102179.59;5017938;28;20488;-48
2022/06/03 11:51:06;;;;;;;2.47;1.00;;;;;;;23.20;35.29;102177.16;5016686;28;20651;-48
2022/06/03 11:53:37;;;;;;;2.15;1.13;;;;;;;23.45;34.72;102166.88;5020006;28;20035;-50
2022/06/03 11:56:07;;;;;;;4.07;1.10;;;;;;;23.44;34.56;102168.78;5023114;28;20025;-48
2022/06/03 11:58:37;;;;;;;2.08;1.20;;;;;;;23.47;34.03;102159.16;5015837;28;20132;-51
2022/06/03 12:01:11;;;;;;;1.48;1.02;;;;;;;23.51;32.95;102154.72;5011450;28;20022;-48
2022/06/03 12:03:51;;;;;;;0.85;0.85;;;;;;;23.55;32.40;102150.28;5018071;28;20037;-51
2022/06/03 12:06:48;;;;;;;5.18;1.10;;;;;;;23.68;34.25;102143.22;5019009;28;20026;-48
2022/06/03 12:09:45;;;;;;;5.70;1.30;;;;;;;24.04;34.22;102135.13;5011218;28;20511;-48
2022/06/03 12:15:30;;;;;;;2.78;0.88;;;;;;;24.31;32.11;102126.91;5011631;28;20467;-48
2022/06/03 12:18:11;;;;;;;1.40;0.75;;;;;;;24.24;31.65;102126.50;5014211;28;20550;-49
2022/06/03 12:20:47;;;;;;;4.70;1.30;;;;;;;24.31;32.70;102124.16;5015625;28;20033;-48
2022/06/03 12:23:12;;;;;;;1.60;0.90;;;;;;;24.33;32.19;102110.97;5010101;28;20068;-48
2022/06/03 12:25:41;;;;;;;3.55;0.80;;;;;;;24.39;32.21;102112.47;5014397;28;20147;-47
2022/06/03 12:28:42;;;;;;;2.17;1.00;;;;;;;24.54;33.42;102100.34;5011783;28;20033;-48
2022/06/03 12:31:22;;;;;;;0.90;0.90;;;;;;;24.87;31.22;102100.13;5011019;28;20151;-49
2022/06/03 12:34:06;;;;;;;1.85;1.00;;;;;;;24.84;31.43;102093.34;5010128;28;20025;-48
2022/06/03 12:36:37;;;;;;;2.05;0.90;;;;;;;25.00;31.00;102094.59;5013324;28;20025;-47
2022/06/03 12:39:04;;;;;;;1.00;0.95;;;;;;;24.93;30.54;102091.44;5014952;28;20046;-46
2022/06/03 12:41:45;;;;;;;0.82;0.82;;;;;;;24.77;30.45;102087.47;5009055;28;20030;-47
2022/06/03 12:44:23;;;;;;;0.80;0.80;;;;;;;24.88;30.27;102082.56;5011649;28;20091;-47
2022/06/03 12:46:49;;;;;;;1.08;0.93;;;;;;;24.86;30.38;102080.13;5010928;28;20041;-46
2022/06/03 12:49:23;;;;;;;3.22;1.00;;;;;;;24.99;30.38;102084.75;5012838;28;20033;-46
2022/06/03 12:52:00;;;;;;;0.98;0.82;;;;;;;25.33;31.61;102075.09;5011904;28;20057;-45
2022/06/03 12:54:27;;;;;;;0.98;0.98;;;;;;;25.53;30.28;102077.28;5014756;28;20108;-46
2022/06/03 12:57:08;;;;;;;1.23;0.80;;;;;;;25.68;30.95;102062.34;5013229;28;20406;-46
2022/06/03 12:59:49;;;;;;;1.38;1.00;;;;;;;26.04;31.12;102067.59;5011500;28;20026;-46
2022/06/03 13:02:19;;;;;;;1.90;1.20;;;;;;;26.17;30.34;102063.06;5011188;28;20036;-47
2022/06/03 13:04:54;;;;;;;1.70;0.88;;;;;;;26.20;29.31;102052.25;5011725;28;20038;-46
2022/06/03 13:07:25;;;;;;;1.20;0.90;;;;;;;26.24;28.89;102046.94;5012007;28;20061;-46